sensor_id;sensor_type;location;lat;lon;timestamp;P1;durP1;ratioP1;P2;durP2;ratioP2
57401;SDS011;43226;51.110;6.998;2022-12-18T00:00:53;6.33;;;3.53;;
57401;SDS011;43226;51.110;6.998;2022-12-18T00:03:19;6.50;;;3.67;;
57401;SDS011;43226;51.110;6.998;2022-12-18T00:05:47;7.93;;;4.53;;
57401;SDS011;43226;51.110;6.998;2022-12-18T00:08:12;6.53;;;3.23;;
57401;SDS011;43226;51.110;6.998;2022-12-18T00:10:38;8.03;;;4.10;;
57401;SDS011;43226;51.110;6.998;2022-12-18T00:13:03;6.90;;;4.63;;
57401;SDS011;43226;51.110;6.998;2022-12-18T00:15:28;6.67;;;3.80;;
57401;SDS011;43226;51.110;6.998;2022-12-18T00:17:53;3.73;;;2.97;;
57401;SDS011;43226;51.110;6.998;2022-12-18T00:20:18;6.10;;;3.83;;
57401;SDS011;43226;51.110;6.998;2022-12-18T00:22:50;12.33;;;5.40;;
57401;SDS011;43226;51.110;6.998;2022-12-18T00:25:15;7.53;;;3.77;;
57401;SDS011;43226;51.110;6.998;2022-12-18T00:27:40;9.90;;;5.10;;
57401;SDS011;43226;51.110;6.998;2022-12-18T00:30:05;6.43;;;3.73;;
57401;SDS011;43226;51.110;6.998;2022-12-18T00:32:32;5.10;;;3.67;;
57401;SDS011;43226;51.110;6.998;2022-12-18T00:34:57;6.30;;;4.20;;
57401;SDS011;43226;51.110;6.998;2022-12-18T00:37:22;5.40;;;3.87;;
57401;SDS011;43226;51.110;6.998;2022-12-18T00:39:47;7.50;;;4.90;;
57401;SDS011;43226;51.110;6.998;2022-12-18T00:42:13;5.87;;;3.60;;
57401;SDS011;43226;51.110;6.998;2022-12-18T00:44:56;4.50;;;3.30;;
57401;SDS011;43226;51.110;6.998;2022-12-18T00:47:22;6.90;;;5.00;;
57401;SDS011;43226;51.110;6.998;2022-12-18T00:49:47;5.10;;;3.93;;
57401;SDS011;43226;51.110;6.998;2022-12-18T00:52:12;6.73;;;4.00;;
57401;SDS011;43226;51.110;6.998;2022-12-18T00:54:37;7.28;;;4.88;;
57401;SDS011;43226;51.110;6.998;2022-12-18T00:57:02;7.37;;;4.17;;
57401;SDS011;43226;51.110;6.998;2022-12-18T00:59:27;5.83;;;3.90;;
57401;SDS011;43226;51.110;6.998;2022-12-18T01:01:53;11.70;;;4.77;;
57401;SDS011;43226;51.110;6.998;2022-12-18T01:04:18;5.77;;;4.20;;
57401;SDS011;43226;51.110;6.998;2022-12-18T01:06:43;6.13;;;3.23;;
57401;SDS011;43226;51.110;6.998;2022-12-18T01:09:08;9.53;;;4.67;;
57401;SDS011;43226;51.110;6.998;2022-12-18T01:11:34;5.93;;;3.33;;
57401;SDS011;43226;51.110;6.998;2022-12-18T01:14:01;8.10;;;4.67;;
57401;SDS011;43226;51.110;6.998;2022-12-18T01:16:26;8.53;;;3.60;;
57401;SDS011;43226;51.110;6.998;2022-12-18T01:18:52;7.03;;;4.80;;
57401;SDS011;43226;51.110;6.998;2022-12-18T01:21:18;5.40;;;3.40;;
57401;SDS011;43226;51.110;6.998;2022-12-18T01:23:44;6.83;;;4.87;;
57401;SDS011;43226;51.110;6.998;2022-12-18T01:26:15;5.67;;;4.03;;
57401;SDS011;43226;51.110;6.998;2022-12-18T01:28:41;10.80;;;5.10;;
57401;SDS011;43226;51.110;6.998;2022-12-18T01:31:12;7.43;;;5.20;;
57401;SDS011;43226;51.110;6.998;2022-12-18T01:33:37;6.47;;;4.93;;
57401;SDS011;43226;51.110;6.998;2022-12-18T01:36:02;6.87;;;4.80;;
57401;SDS011;43226;51.110;6.998;2022-12-18T01:38:28;6.80;;;4.67;;
57401;SDS011;43226;51.110;6.998;2022-12-18T01:40:57;7.13;;;4.27;;
57401;SDS011;43226;51.110;6.998;2022-12-18T01:43:39;7.70;;;3.63;;
57401;SDS011;43226;51.110;6.998;2022-12-18T01:46:05;5.73;;;4.43;;
57401;SDS011;43226;51.110;6.998;2022-12-18T01:48:30;10.23;;;4.20;;
57401;SDS011;43226;51.110;6.998;2022-12-18T01:50:55;6.00;;;3.57;;
57401;SDS011;43226;51.110;6.998;2022-12-18T01:53:21;8.53;;;5.03;;
57401;SDS011;43226;51.110;6.998;2022-12-18T01:55:48;9.40;;;4.67;;
57401;SDS011;43226;51.110;6.998;2022-12-18T01:58:14;6.63;;;4.77;;
57401;SDS011;43226;51.110;6.998;2022-12-18T02:00:40;6.70;;;4.70;;
57401;SDS011;43226;51.110;6.998;2022-12-18T02:03:05;7.83;;;5.20;;
57401;SDS011;43226;51.110;6.998;2022-12-18T02:05:34;8.90;;;5.30;;
57401;SDS011;43226;51.110;6.998;2022-12-18T02:08:06;5.13;;;4.23;;
57401;SDS011;43226;51.110;6.998;2022-12-18T02:13:36;4.97;;;3.87;;
57401;SDS011;43226;51.110;6.998;2022-12-18T02:18:35;5.90;;;4.57;;
57401;SDS011;43226;51.110;6.998;2022-12-18T02:21:08;7.40;;;3.43;;
57401;SDS011;43226;51.110;6.998;2022-12-18T02:23:45;5.73;;;3.27;;
57401;SDS011;43226;51.110;6.998;2022-12-18T02:28:41;11.40;;;4.73;;
57401;SDS011;43226;51.110;6.998;2022-12-18T02:31:07;7.43;;;4.00;;
57401;SDS011;43226;51.110;6.998;2022-12-18T02:33:35;3.90;;;2.90;;
57401;SDS011;43226;51.110;6.998;2022-12-18T02:36:00;5.40;;;3.90;;
57401;SDS011;43226;51.110;6.998;2022-12-18T02:38:26;7.23;;;4.13;;
57401;SDS011;43226;51.110;6.998;2022-12-18T02:40:53;5.30;;;3.33;;
57401;SDS011;43226;51.110;6.998;2022-12-18T02:43:18;4.50;;;3.37;;
57401;SDS011;43226;51.110;6.998;2022-12-18T02:45:47;7.70;;;4.40;;
57401;SDS011;43226;51.110;6.998;2022-12-18T02:48:13;4.73;;;2.60;;
57401;SDS011;43226;51.110;6.998;2022-12-18T02:50:40;6.57;;;4.10;;
57401;SDS011;43226;51.110;6.998;2022-12-18T03:00:58;5.27;;;3.97;;
57401;SDS011;43226;51.110;6.998;2022-12-18T03:03:25;5.47;;;3.70;;
57401;SDS011;43226;51.110;6.998;2022-12-18T03:05:59;11.03;;;4.50;;
57401;SDS011;43226;51.110;6.998;2022-12-18T03:08:26;6.37;;;3.70;;
57401;SDS011;43226;51.110;6.998;2022-12-18T03:10:54;5.73;;;3.43;;
57401;SDS011;43226;51.110;6.998;2022-12-18T03:13:26;4.60;;;3.80;;
57401;SDS011;43226;51.110;6.998;2022-12-18T03:15:52;6.80;;;3.40;;
57401;SDS011;43226;51.110;6.998;2022-12-18T03:18:21;5.57;;;3.60;;
57401;SDS011;43226;51.110;6.998;2022-12-18T03:20:47;6.17;;;3.67;;
57401;SDS011;43226;51.110;6.998;2022-12-18T03:23:15;5.67;;;4.10;;
57401;SDS011;43226;51.110;6.998;2022-12-18T03:25:42;4.60;;;3.50;;
57401;SDS011;43226;51.110;6.998;2022-12-18T03:28:09;8.13;;;4.43;;
57401;SDS011;43226;51.110;6.998;2022-12-18T03:30:37;5.70;;;3.70;;
57401;SDS011;43226;51.110;6.998;2022-12-18T03:35:33;6.37;;;4.07;;
57401;SDS011;43226;51.110;6.998;2022-12-18T03:37:59;5.20;;;3.30;;
57401;SDS011;43226;51.110;6.998;2022-12-18T03:43:09;6.37;;;2.63;;
57401;SDS011;43226;51.110;6.998;2022-12-18T03:45:36;7.70;;;3.70;;
57401;SDS011;43226;51.110;6.998;2022-12-18T03:48:04;5.67;;;3.70;;
57401;SDS011;43226;51.110;6.998;2022-12-18T03:50:36;5.90;;;3.97;;
57401;SDS011;43226;51.110;6.998;2022-12-18T03:53:17;4.43;;;3.10;;
57401;SDS011;43226;51.110;6.998;2022-12-18T03:55:45;2.57;;;2.17;;
57401;SDS011;43226;51.110;6.998;2022-12-18T03:58:11;5.43;;;4.20;;
57401;SDS011;43226;51.110;6.998;2022-12-18T04:00:38;5.43;;;4.13;;
57401;SDS011;43226;51.110;6.998;2022-12-18T04:03:03;5.37;;;3.27;;
57401;SDS011;43226;51.110;6.998;2022-12-18T04:05:29;5.77;;;3.53;;
57401;SDS011;43226;51.110;6.998;2022-12-18T04:07:55;3.60;;;3.30;;
57401;SDS011;43226;51.110;6.998;2022-12-18T04:10:21;8.43;;;4.07;;
57401;SDS011;43226;51.110;6.998;2022-12-18T04:12:46;9.00;;;4.23;;
57401;SDS011;43226;51.110;6.998;2022-12-18T04:15:12;5.57;;;3.17;;
57401;SDS011;43226;51.110;6.998;2022-12-18T04:17:37;4.13;;;3.70;;
57401;SDS011;43226;51.110;6.998;2022-12-18T04:20:03;6.17;;;3.70;;
57401;SDS011;43226;51.110;6.998;2022-12-18T04:22:28;4.13;;;3.00;;
57401;SDS011;43226;51.110;6.998;2022-12-18T04:24:53;7.13;;;3.93;;
57401;SDS011;43226;51.110;6.998;2022-12-18T04:27:19;7.43;;;3.50;;
57401;SDS011;43226;51.110;6.998;2022-12-18T04:29:44;5.50;;;3.17;;
57401;SDS011;43226;51.110;6.998;2022-12-18T04:32:09;4.93;;;3.07;;
57401;SDS011;43226;51.110;6.998;2022-12-18T04:34:34;4.90;;;3.20;;
57401;SDS011;43226;51.110;6.998;2022-12-18T04:36:59;3.83;;;3.10;;
57401;SDS011;43226;51.110;6.998;2022-12-18T04:39:25;4.17;;;2.80;;
57401;SDS011;43226;51.110;6.998;2022-12-18T04:41:50;4.20;;;2.90;;
57401;SDS011;43226;51.110;6.998;2022-12-18T04:44:15;8.73;;;4.10;;
57401;SDS011;43226;51.110;6.998;2022-12-18T04:46:40;4.80;;;3.83;;
57401;SDS011;43226;51.110;6.998;2022-12-18T04:49:06;3.63;;;2.93;;
57401;SDS011;43226;51.110;6.998;2022-12-18T04:51:31;5.00;;;2.17;;
57401;SDS011;43226;51.110;6.998;2022-12-18T04:53:56;2.67;;;2.40;;
57401;SDS011;43226;51.110;6.998;2022-12-18T04:56:21;3.80;;;3.00;;
57401;SDS011;43226;51.110;6.998;2022-12-18T04:58:46;7.00;;;3.47;;
57401;SDS011;43226;51.110;6.998;2022-12-18T05:01:12;5.80;;;3.07;;
57401;SDS011;43226;51.110;6.998;2022-12-18T05:03:38;5.10;;;3.10;;
57401;SDS011;43226;51.110;6.998;2022-12-18T05:06:04;6.73;;;3.73;;
57401;SDS011;43226;51.110;6.998;2022-12-18T05:08:29;6.10;;;2.93;;
57401;SDS011;43226;51.110;6.998;2022-12-18T05:10:58;2.50;;;2.30;;
57401;SDS011;43226;51.110;6.998;2022-12-18T05:13:23;4.03;;;3.10;;
57401;SDS011;43226;51.110;6.998;2022-12-18T05:15:51;3.90;;;3.50;;
57401;SDS011;43226;51.110;6.998;2022-12-18T05:18:16;3.00;;;2.03;;
57401;SDS011;43226;51.110;6.998;2022-12-18T05:20:41;3.70;;;2.93;;
57401;SDS011;43226;51.110;6.998;2022-12-18T05:23:07;4.40;;;3.10;;
57401;SDS011;43226;51.110;6.998;2022-12-18T05:25:32;4.03;;;3.33;;
57401;SDS011;43226;51.110;6.998;2022-12-18T05:27:57;5.23;;;2.70;;
57401;SDS011;43226;51.110;6.998;2022-12-18T05:30:22;4.40;;;3.27;;
57401;SDS011;43226;51.110;6.998;2022-12-18T05:32:48;4.20;;;2.33;;
57401;SDS011;43226;51.110;6.998;2022-12-18T05:35:14;4.50;;;3.20;;
57401;SDS011;43226;51.110;6.998;2022-12-18T05:37:39;5.67;;;3.47;;
57401;SDS011;43226;51.110;6.998;2022-12-18T05:40:05;3.13;;;2.00;;
57401;SDS011;43226;51.110;6.998;2022-12-18T05:42:30;4.77;;;3.30;;
57401;SDS011;43226;51.110;6.998;2022-12-18T05:44:55;4.60;;;3.07;;
57401;SDS011;43226;51.110;6.998;2022-12-18T05:47:20;5.43;;;3.10;;
57401;SDS011;43226;51.110;6.998;2022-12-18T05:49:46;5.83;;;3.70;;
57401;SDS011;43226;51.110;6.998;2022-12-18T05:52:11;5.67;;;3.83;;
57401;SDS011;43226;51.110;6.998;2022-12-18T05:54:36;6.57;;;3.90;;
57401;SDS011;43226;51.110;6.998;2022-12-18T05:57:01;5.77;;;3.17;;
57401;SDS011;43226;51.110;6.998;2022-12-18T05:59:27;4.27;;;2.90;;
57401;SDS011;43226;51.110;6.998;2022-12-18T06:01:52;5.43;;;3.97;;
57401;SDS011;43226;51.110;6.998;2022-12-18T06:04:17;5.37;;;3.33;;
57401;SDS011;43226;51.110;6.998;2022-12-18T06:06:42;4.60;;;3.17;;
57401;SDS011;43226;51.110;6.998;2022-12-18T06:09:07;3.97;;;3.13;;
57401;SDS011;43226;51.110;6.998;2022-12-18T06:11:34;5.03;;;3.80;;
57401;SDS011;43226;51.110;6.998;2022-12-18T06:14:00;5.10;;;3.47;;
57401;SDS011;43226;51.110;6.998;2022-12-18T06:16:26;5.17;;;3.67;;
57401;SDS011;43226;51.110;6.998;2022-12-18T06:18:51;8.80;;;3.93;;
57401;SDS011;43226;51.110;6.998;2022-12-18T06:21:17;7.27;;;4.60;;
57401;SDS011;43226;51.110;6.998;2022-12-18T06:23:42;8.60;;;4.30;;
57401;SDS011;43226;51.110;6.998;2022-12-18T06:26:08;7.10;;;4.07;;
57401;SDS011;43226;51.110;6.998;2022-12-18T06:28:34;6.70;;;3.50;;
57401;SDS011;43226;51.110;6.998;2022-12-18T06:30:59;7.60;;;4.37;;
57401;SDS011;43226;51.110;6.998;2022-12-18T06:33:27;7.77;;;4.40;;
57401;SDS011;43226;51.110;6.998;2022-12-18T06:36:09;4.90;;;3.50;;
57401;SDS011;43226;51.110;6.998;2022-12-18T06:38:35;4.07;;;3.33;;
57401;SDS011;43226;51.110;6.998;2022-12-18T06:41:05;6.60;;;3.87;;
57401;SDS011;43226;51.110;6.998;2022-12-18T06:43:31;7.40;;;4.33;;
57401;SDS011;43226;51.110;6.998;2022-12-18T06:45:59;8.13;;;4.03;;
57401;SDS011;43226;51.110;6.998;2022-12-18T06:48:25;6.40;;;4.07;;
57401;SDS011;43226;51.110;6.998;2022-12-18T06:50:50;7.50;;;3.97;;
57401;SDS011;43226;51.110;6.998;2022-12-18T06:53:15;8.03;;;4.23;;
57401;SDS011;43226;51.110;6.998;2022-12-18T06:55:40;8.10;;;4.30;;
57401;SDS011;43226;51.110;6.998;2022-12-18T06:58:06;5.33;;;4.00;;
57401;SDS011;43226;51.110;6.998;2022-12-18T07:00:31;5.70;;;4.00;;
57401;SDS011;43226;51.110;6.998;2022-12-18T07:02:58;8.57;;;4.03;;
57401;SDS011;43226;51.110;6.998;2022-12-18T07:05:23;4.57;;;3.30;;
57401;SDS011;43226;51.110;6.998;2022-12-18T07:07:48;6.30;;;3.97;;
57401;SDS011;43226;51.110;6.998;2022-12-18T07:10:14;6.13;;;4.00;;
57401;SDS011;43226;51.110;6.998;2022-12-18T07:12:39;6.43;;;4.20;;
57401;SDS011;43226;51.110;6.998;2022-12-18T07:15:04;5.30;;;3.70;;
57401;SDS011;43226;51.110;6.998;2022-12-18T07:17:30;7.10;;;4.32;;
57401;SDS011;43226;51.110;6.998;2022-12-18T07:19:55;12.63;;;5.23;;
57401;SDS011;43226;51.110;6.998;2022-12-18T07:22:20;11.37;;;4.60;;
57401;SDS011;43226;51.110;6.998;2022-12-18T07:24:46;7.97;;;4.30;;
57401;SDS011;43226;51.110;6.998;2022-12-18T07:27:11;7.67;;;4.73;;
57401;SDS011;43226;51.110;6.998;2022-12-18T07:29:36;6.17;;;3.60;;
57401;SDS011;43226;51.110;6.998;2022-12-18T07:32:01;6.17;;;3.70;;
57401;SDS011;43226;51.110;6.998;2022-12-18T07:34:26;7.53;;;5.20;;
57401;SDS011;43226;51.110;6.998;2022-12-18T07:36:51;6.40;;;3.70;;
57401;SDS011;43226;51.110;6.998;2022-12-18T07:39:17;9.33;;;4.80;;
57401;SDS011;43226;51.110;6.998;2022-12-18T07:41:42;8.10;;;5.07;;
57401;SDS011;43226;51.110;6.998;2022-12-18T07:44:10;8.60;;;5.00;;
57401;SDS011;43226;51.110;6.998;2022-12-18T07:46:36;8.23;;;4.10;;
57401;SDS011;43226;51.110;6.998;2022-12-18T07:49:01;7.10;;;4.53;;
57401;SDS011;43226;51.110;6.998;2022-12-18T07:51:26;8.80;;;4.90;;
57401;SDS011;43226;51.110;6.998;2022-12-18T07:53:51;14.40;;;5.53;;
57401;SDS011;43226;51.110;6.998;2022-12-18T07:56:17;9.73;;;5.80;;
57401;SDS011;43226;51.110;6.998;2022-12-18T07:58:42;7.70;;;4.57;;
57401;SDS011;43226;51.110;6.998;2022-12-18T08:01:10;11.07;;;5.97;;
57401;SDS011;43226;51.110;6.998;2022-12-18T08:03:36;12.60;;;6.33;;
57401;SDS011;43226;51.110;6.998;2022-12-18T08:06:02;13.70;;;6.80;;
57401;SDS011;43226;51.110;6.998;2022-12-18T08:08:27;11.00;;;5.60;;
57401;SDS011;43226;51.110;6.998;2022-12-18T08:10:52;14.37;;;6.33;;
57401;SDS011;43226;51.110;6.998;2022-12-18T08:13:18;9.60;;;7.03;;
57401;SDS011;43226;51.110;6.998;2022-12-18T08:15:43;11.07;;;7.40;;
57401;SDS011;43226;51.110;6.998;2022-12-18T08:18:08;13.70;;;8.17;;
57401;SDS011;43226;51.110;6.998;2022-12-18T08:20:33;12.10;;;7.53;;
57401;SDS011;43226;51.110;6.998;2022-12-18T08:22:58;9.33;;;6.03;;
57401;SDS011;43226;51.110;6.998;2022-12-18T08:25:24;7.83;;;6.10;;
57401;SDS011;43226;51.110;6.998;2022-12-18T08:27:49;12.07;;;6.70;;
57401;SDS011;43226;51.110;6.998;2022-12-18T08:30:14;12.67;;;7.27;;
57401;SDS011;43226;51.110;6.998;2022-12-18T08:32:39;8.83;;;6.40;;
57401;SDS011;43226;51.110;6.998;2022-12-18T08:35:04;9.97;;;6.60;;
57401;SDS011;43226;51.110;6.998;2022-12-18T08:37:30;9.30;;;5.70;;
57401;SDS011;43226;51.110;6.998;2022-12-18T08:39:55;9.53;;;5.20;;
57401;SDS011;43226;51.110;6.998;2022-12-18T08:42:20;8.50;;;5.80;;
57401;SDS011;43226;51.110;6.998;2022-12-18T08:45:04;10.10;;;5.13;;
57401;SDS011;43226;51.110;6.998;2022-12-18T08:47:29;6.40;;;5.13;;
57401;SDS011;43226;51.110;6.998;2022-12-18T08:49:54;10.40;;;5.90;;
57401;SDS011;43226;51.110;6.998;2022-12-18T08:52:19;13.50;;;6.13;;
57401;SDS011;43226;51.110;6.998;2022-12-18T08:54:45;8.27;;;5.10;;
57401;SDS011;43226;51.110;6.998;2022-12-18T08:57:10;11.80;;;6.37;;
57401;SDS011;43226;51.110;6.998;2022-12-18T08:59:35;7.40;;;5.30;;
57401;SDS011;43226;51.110;6.998;2022-12-18T09:02:00;8.20;;;5.47;;
57401;SDS011;43226;51.110;6.998;2022-12-18T09:04:25;7.87;;;5.90;;
57401;SDS011;43226;51.110;6.998;2022-12-18T09:06:51;8.90;;;5.07;;
57401;SDS011;43226;51.110;6.998;2022-12-18T09:09:16;9.40;;;5.73;;
57401;SDS011;43226;51.110;6.998;2022-12-18T09:11:41;7.20;;;4.93;;
57401;SDS011;43226;51.110;6.998;2022-12-18T09:14:06;10.77;;;5.50;;
57401;SDS011;43226;51.110;6.998;2022-12-18T09:16:32;10.73;;;5.97;;
57401;SDS011;43226;51.110;6.998;2022-12-18T09:18:59;10.10;;;5.20;;
57401;SDS011;43226;51.110;6.998;2022-12-18T09:21:25;11.50;;;6.00;;
57401;SDS011;43226;51.110;6.998;2022-12-18T09:23:51;7.63;;;4.33;;
57401;SDS011;43226;51.110;6.998;2022-12-18T09:26:16;9.00;;;5.67;;
57401;SDS011;43226;51.110;6.998;2022-12-18T09:28:42;8.03;;;4.93;;
57401;SDS011;43226;51.110;6.998;2022-12-18T09:31:07;5.20;;;3.73;;
57401;SDS011;43226;51.110;6.998;2022-12-18T09:33:36;6.97;;;4.00;;
57401;SDS011;43226;51.110;6.998;2022-12-18T09:36:02;7.50;;;5.50;;
57401;SDS011;43226;51.110;6.998;2022-12-18T09:38:28;9.80;;;5.00;;
57401;SDS011;43226;51.110;6.998;2022-12-18T09:40:55;11.00;;;6.03;;
57401;SDS011;43226;51.110;6.998;2022-12-18T09:43:35;8.40;;;4.37;;
57401;SDS011;43226;51.110;6.998;2022-12-18T09:46:03;5.57;;;4.10;;
57401;SDS011;43226;51.110;6.998;2022-12-18T09:48:37;8.40;;;5.50;;
57401;SDS011;43226;51.110;6.998;2022-12-18T09:54:11;10.43;;;4.40;;
57401;SDS011;43226;51.110;6.998;2022-12-18T09:56:38;9.03;;;5.50;;
57401;SDS011;43226;51.110;6.998;2022-12-18T09:59:05;8.93;;;5.50;;
57401;SDS011;43226;51.110;6.998;2022-12-18T10:01:31;7.77;;;4.63;;
57401;SDS011;43226;51.110;6.998;2022-12-18T10:03:56;6.53;;;3.97;;
57401;SDS011;43226;51.110;6.998;2022-12-18T10:07:07;8.90;;;4.07;;
57401;SDS011;43226;51.110;6.998;2022-12-18T10:16:27;14.80;;;6.05;;
57401;SDS011;43226;51.110;6.998;2022-12-18T10:18:58;7.33;;;4.10;;
57401;SDS011;43226;51.110;6.998;2022-12-18T10:21:28;9.97;;;5.60;;
57401;SDS011;43226;51.110;6.998;2022-12-18T10:26:39;7.17;;;4.50;;
57401;SDS011;43226;51.110;6.998;2022-12-18T10:29:09;7.40;;;3.73;;
57401;SDS011;43226;51.110;6.998;2022-12-18T10:31:36;5.80;;;3.90;;
57401;SDS011;43226;51.110;6.998;2022-12-18T10:34:01;8.57;;;4.80;;
57401;SDS011;43226;51.110;6.998;2022-12-18T10:36:26;8.63;;;4.73;;
57401;SDS011;43226;51.110;6.998;2022-12-18T10:38:51;11.50;;;4.40;;
57401;SDS011;43226;51.110;6.998;2022-12-18T10:44:10;12.33;;;4.23;;
57401;SDS011;43226;51.110;6.998;2022-12-18T10:46:36;11.43;;;4.53;;
57401;SDS011;43226;51.110;6.998;2022-12-18T10:49:01;13.90;;;5.10;;
57401;SDS011;43226;51.110;6.998;2022-12-18T10:51:31;9.97;;;5.37;;
57401;SDS011;43226;51.110;6.998;2022-12-18T10:56:27;12.07;;;4.50;;
57401;SDS011;43226;51.110;6.998;2022-12-18T10:58:57;7.87;;;4.80;;
57401;SDS011;43226;51.110;6.998;2022-12-18T11:01:22;12.43;;;5.43;;
57401;SDS011;43226;51.110;6.998;2022-12-18T11:06:19;8.40;;;4.13;;
57401;SDS011;43226;51.110;6.998;2022-12-18T11:11:27;7.33;;;4.53;;
57401;SDS011;43226;51.110;6.998;2022-12-18T11:16:36;7.27;;;5.03;;
57401;SDS011;43226;51.110;6.998;2022-12-18T11:19:17;5.90;;;4.67;;
57401;SDS011;43226;51.110;6.998;2022-12-18T11:21:46;5.60;;;3.30;;
57401;SDS011;43226;51.110;6.998;2022-12-18T11:24:20;5.47;;;3.87;;
57401;SDS011;43226;51.110;6.998;2022-12-18T11:34:31;5.40;;;3.47;;
57401;SDS011;43226;51.110;6.998;2022-12-18T11:36:57;7.27;;;4.97;;
57401;SDS011;43226;51.110;6.998;2022-12-18T11:42:04;7.00;;;4.60;;
57401;SDS011;43226;51.110;6.998;2022-12-18T11:49:55;9.17;;;5.30;;
57401;SDS011;43226;51.110;6.998;2022-12-18T11:52:21;8.17;;;5.43;;
57401;SDS011;43226;51.110;6.998;2022-12-18T11:54:50;12.03;;;5.17;;
57401;SDS011;43226;51.110;6.998;2022-12-18T11:59:53;12.33;;;5.63;;
57401;SDS011;43226;51.110;6.998;2022-12-18T12:05:06;9.50;;;6.33;;
57401;SDS011;43226;51.110;6.998;2022-12-18T12:07:45;9.97;;;6.57;;
57401;SDS011;43226;51.110;6.998;2022-12-18T12:10:23;14.40;;;5.73;;
57401;SDS011;43226;51.110;6.998;2022-12-18T12:12:55;10.30;;;5.70;;
57401;SDS011;43226;51.110;6.998;2022-12-18T12:15:39;12.57;;;6.50;;
57401;SDS011;43226;51.110;6.998;2022-12-18T12:37:17;15.63;;;7.20;;
57401;SDS011;43226;51.110;6.998;2022-12-18T12:39:44;10.03;;;5.53;;
57401;SDS011;43226;51.110;6.998;2022-12-18T12:42:16;10.13;;;5.97;;
57401;SDS011;43226;51.110;6.998;2022-12-18T12:45:03;12.90;;;6.93;;
57401;SDS011;43226;51.110;6.998;2022-12-18T12:47:30;12.53;;;7.00;;
57401;SDS011;43226;51.110;6.998;2022-12-18T12:49:58;8.80;;;5.30;;
57401;SDS011;43226;51.110;6.998;2022-12-18T12:52:29;8.87;;;6.20;;
57401;SDS011;43226;51.110;6.998;2022-12-18T12:54:55;9.70;;;5.73;;
57401;SDS011;43226;51.110;6.998;2022-12-18T12:57:23;13.10;;;6.60;;
57401;SDS011;43226;51.110;6.998;2022-12-18T13:02:28;13.50;;;6.97;;
57401;SDS011;43226;51.110;6.998;2022-12-18T13:04:57;10.87;;;6.00;;
57401;SDS011;43226;51.110;6.998;2022-12-18T13:13:14;11.27;;;6.70;;
57401;SDS011;43226;51.110;6.998;2022-12-18T13:15:42;12.47;;;7.40;;
57401;SDS011;43226;51.110;6.998;2022-12-18T13:20:40;15.67;;;8.07;;
57401;SDS011;43226;51.110;6.998;2022-12-18T13:23:23;11.20;;;5.80;;
57401;SDS011;43226;51.110;6.998;2022-12-18T13:25:51;12.87;;;6.87;;
57401;SDS011;43226;51.110;6.998;2022-12-18T13:28:20;11.17;;;7.23;;
57401;SDS011;43226;51.110;6.998;2022-12-18T13:35:40;16.20;;;7.47;;
57401;SDS011;43226;51.110;6.998;2022-12-18T13:38:22;10.80;;;7.03;;
57401;SDS011;43226;51.110;6.998;2022-12-18T13:45:45;16.27;;;7.00;;
57401;SDS011;43226;51.110;6.998;2022-12-18T13:48:16;13.20;;;6.53;;
57401;SDS011;43226;51.110;6.998;2022-12-18T13:50:42;12.33;;;7.67;;
57401;SDS011;43226;51.110;6.998;2022-12-18T13:53:11;34.73;;;7.63;;
57401;SDS011;43226;51.110;6.998;2022-12-18T13:55:43;10.27;;;6.10;;
57401;SDS011;43226;51.110;6.998;2022-12-18T13:58:11;14.47;;;8.30;;
57401;SDS011;43226;51.110;6.998;2022-12-18T14:00:40;12.07;;;6.70;;
57401;SDS011;43226;51.110;6.998;2022-12-18T14:03:15;15.83;;;8.43;;
57401;SDS011;43226;51.110;6.998;2022-12-18T14:05:40;16.10;;;6.60;;
57401;SDS011;43226;51.110;6.998;2022-12-18T14:08:12;12.60;;;7.03;;
57401;SDS011;43226;51.110;6.998;2022-12-18T14:10:41;11.70;;;7.27;;
57401;SDS011;43226;51.110;6.998;2022-12-18T14:13:09;13.90;;;8.27;;
57401;SDS011;43226;51.110;6.998;2022-12-18T14:15:35;18.30;;;8.40;;
57401;SDS011;43226;51.110;6.998;2022-12-18T14:18:23;14.07;;;7.17;;
57401;SDS011;43226;51.110;6.998;2022-12-18T14:20:50;12.37;;;7.27;;
57401;SDS011;43226;51.110;6.998;2022-12-18T14:23:29;10.03;;;6.50;;
57401;SDS011;43226;51.110;6.998;2022-12-18T14:25:54;18.80;;;9.47;;
57401;SDS011;43226;51.110;6.998;2022-12-18T14:28:19;21.53;;;9.07;;
57401;SDS011;43226;51.110;6.998;2022-12-18T14:30:46;18.47;;;8.80;;
57401;SDS011;43226;51.110;6.998;2022-12-18T14:33:13;9.43;;;6.20;;
57401;SDS011;43226;51.110;6.998;2022-12-18T14:35:40;16.33;;;8.30;;
57401;SDS011;43226;51.110;6.998;2022-12-18T14:38:20;15.43;;;8.63;;
57401;SDS011;43226;51.110;6.998;2022-12-18T14:40:47;16.13;;;9.73;;
57401;SDS011;43226;51.110;6.998;2022-12-18T14:43:12;25.90;;;11.60;;
57401;SDS011;43226;51.110;6.998;2022-12-18T14:45:41;17.30;;;8.83;;
57401;SDS011;43226;51.110;6.998;2022-12-18T14:48:17;17.10;;;10.37;;
57401;SDS011;43226;51.110;6.998;2022-12-18T14:50:43;22.53;;;9.90;;
57401;SDS011;43226;51.110;6.998;2022-12-18T14:53:19;16.20;;;9.17;;
57401;SDS011;43226;51.110;6.998;2022-12-18T14:55:46;9.50;;;5.50;;
57401;SDS011;43226;51.110;6.998;2022-12-18T14:58:13;19.50;;;10.80;;
57401;SDS011;43226;51.110;6.998;2022-12-18T15:00:41;14.43;;;8.30;;
57401;SDS011;43226;51.110;6.998;2022-12-18T15:03:06;17.53;;;8.60;;
57401;SDS011;43226;51.110;6.998;2022-12-18T15:05:32;15.70;;;7.07;;
57401;SDS011;43226;51.110;6.998;2022-12-18T15:07:58;12.50;;;8.20;;
57401;SDS011;43226;51.110;6.998;2022-12-18T15:10:27;18.27;;;10.67;;
57401;SDS011;43226;51.110;6.998;2022-12-18T15:18:04;19.90;;;11.00;;
57401;SDS011;43226;51.110;6.998;2022-12-18T15:20:31;13.53;;;8.23;;
57401;SDS011;43226;51.110;6.998;2022-12-18T15:22:57;18.23;;;9.23;;
57401;SDS011;43226;51.110;6.998;2022-12-18T15:25:31;11.87;;;7.50;;
57401;SDS011;43226;51.110;6.998;2022-12-18T15:27:57;15.27;;;10.10;;
57401;SDS011;43226;51.110;6.998;2022-12-18T15:30:23;18.47;;;9.37;;
57401;SDS011;43226;51.110;6.998;2022-12-18T15:32:48;18.50;;;9.27;;
57401;SDS011;43226;51.110;6.998;2022-12-18T15:35:20;16.27;;;9.07;;
57401;SDS011;43226;51.110;6.998;2022-12-18T15:37:45;12.40;;;7.60;;
57401;SDS011;43226;51.110;6.998;2022-12-18T15:40:23;12.63;;;7.20;;
57401;SDS011;43226;51.110;6.998;2022-12-18T15:42:50;8.40;;;5.60;;
57401;SDS011;43226;51.110;6.998;2022-12-18T15:45:35;25.20;;;12.60;;
57401;SDS011;43226;51.110;6.998;2022-12-18T15:48:09;16.83;;;9.33;;
57401;SDS011;43226;51.110;6.998;2022-12-18T15:50:38;20.70;;;10.23;;
57401;SDS011;43226;51.110;6.998;2022-12-18T15:53:03;11.40;;;6.30;;
57401;SDS011;43226;51.110;6.998;2022-12-18T15:55:28;12.07;;;7.07;;
57401;SDS011;43226;51.110;6.998;2022-12-18T15:58:12;17.00;;;8.27;;
57401;SDS011;43226;51.110;6.998;2022-12-18T16:00:38;18.50;;;8.60;;
57401;SDS011;43226;51.110;6.998;2022-12-18T16:03:04;13.80;;;8.07;;
57401;SDS011;43226;51.110;6.998;2022-12-18T16:05:29;20.30;;;9.17;;
57401;SDS011;43226;51.110;6.998;2022-12-18T16:07:55;26.80;;;14.17;;
57401;SDS011;43226;51.110;6.998;2022-12-18T16:10:21;18.77;;;11.37;;
57401;SDS011;43226;51.110;6.998;2022-12-18T16:12:46;18.63;;;9.40;;
57401;SDS011;43226;51.110;6.998;2022-12-18T16:15:12;15.63;;;9.83;;
57401;SDS011;43226;51.110;6.998;2022-12-18T16:17:38;19.83;;;10.70;;
57401;SDS011;43226;51.110;6.998;2022-12-18T16:20:04;14.40;;;7.97;;
57401;SDS011;43226;51.110;6.998;2022-12-18T16:22:29;19.93;;;9.37;;
57401;SDS011;43226;51.110;6.998;2022-12-18T16:24:55;21.30;;;9.17;;
57401;SDS011;43226;51.110;6.998;2022-12-18T16:27:20;23.00;;;11.20;;
57401;SDS011;43226;51.110;6.998;2022-12-18T16:29:46;16.70;;;10.67;;
57401;SDS011;43226;51.110;6.998;2022-12-18T16:32:12;19.43;;;9.73;;
57401;SDS011;43226;51.110;6.998;2022-12-18T16:34:38;24.60;;;12.50;;
57401;SDS011;43226;51.110;6.998;2022-12-18T16:37:04;20.67;;;10.50;;